Charlotte — VJ5689 — position and weather

sailwx.info

Track history (hours):
 
Tides and Currents Weather Stations Pressure Air Temp Water Temp Dewpoint Dewpoint Depression Visibility Wind Speed Wind Dir Waves Ship Positions

Charlotte

Last reported at 2018-May-21 18:17 UTC. Time now 2018-May-21 19:00 UTC.
Position S 33°52' E 151°13'.

Length 25 m.

Type: Passenger vessel. MMSI: 503345200.

Date/timePositionNaut miles runAvg speedWind from/ knotsBaromVisibWave heightAir tempDewpointWater temp
2018-May-21 18:17S 33°52' E 151°13'0 0.0
2018-May-21 17:55S 33°52' E 151°13'0 0.0
2018-May-21 17:27S 33°52' E 151°13'0 0.0
2018-May-21 16:53S 33°52' E 151°13'0 0.0
2018-May-21 14:57S 33°52' E 151°13'0 0.0
2018-May-21 14:14S 33°52' E 151°13'0 0.0
2018-May-21 13:56S 33°52' E 151°13'0 0.0
2018-May-21 13:27S 33°52' E 151°13'0 0.0
2018-May-21 13:00S 33°52' E 151°13'0 0.0
2018-May-21 12:30S 33°52' E 151°13'0 0.0
2018-May-21 11:50S 33°52' E 151°13'0 0.0
2018-May-21 11:09S 33°52' E 151°13'0 0.0
2018-May-21 10:42S 33°52' E 151°13'0 0.0
2018-May-21 10:28S 33°52' E 151°13'0 0.0
2018-May-21 10:00S 33°52' E 151°13'0 0.0
2018-May-21 09:30S 33°52' E 151°13'2 3.2
2018-May-21 09:00S 33°51' E 151°14'0 0.8
2018-May-21 08:30S 33°51' E 151°14'1 2.4
2018-May-21 08:00S 33°52' E 151°13'2 3.4
2018-May-21 07:30S 33°51' E 151°14'2 0.2
2018-May-20 20:40S 33°52' E 151°13'0 0.0
2018-May-20 20:30S 33°52' E 151°13'0 0.0
2018-May-20 20:00S 33°52' E 151°13'0 0.0
2018-May-20 19:30S 33°52' E 151°13'0 0.0
2018-May-20 19:00S 33°52' E 151°13'0 0.0
2018-May-20 18:30S 33°52' E 151°13'0 0.0
2018-May-20 17:42S 33°52' E 151°13'0 0.0
2018-May-20 16:42S 33°52' E 151°13'0 0.0
2018-May-20 16:30S 33°52' E 151°13'0 0.0
2018-May-20 16:00S 33°52' E 151°13'0 0.0
2018-May-20 15:30S 33°52' E 151°13'0 0.0
2018-May-20 15:00S 33°52' E 151°13'0 0.0
2018-May-20 14:30S 33°52' E 151°13'0 0.0
2018-May-20 14:00S 33°52' E 151°13'0 0.0
2018-May-20 13:30S 33°52' E 151°13'0 0.0
2018-May-20 10:33S 33°52' E 151°13'0 0.0
2018-May-20 10:26S 33°52' E 151°13'0 0.0
2018-May-20 09:56S 33°52' E 151°13'0 0.0
2018-May-20 09:30S 33°52' E 151°13'1 1.3
2018-May-20 08:57S 33°51' E 151°13'1 2.3
2018-May-20 08:23S 33°52' E 151°15'2 4.0
2018-May-20 08:00S 33°51' E 151°13'2 3.0
2018-May-20 07:31S 33°51' E 151°11'2 0.1
2018-May-19 20:39S 33°52' E 151°13'0 0.0
2018-May-19 20:27S 33°52' E 151°13'0 0.0
2018-May-19 20:00S 33°52' E 151°13'0 0.0
2018-May-19 14:23S 33°52' E 151°13'1 3.0
2018-May-19 14:00S 33°51' E 151°11'2 3.6
2018-May-19 13:28S 33°51' E 151°14'1 1.8
2018-May-19 12:59S 33°52' E 151°13'1 2.5
2018-May-19 12:30S 33°51' E 151°11'0 0.7
2018-May-19 11:59S 33°51' E 151°11'2 4.6
2018-May-19 11:29S 33°51' E 151°14'1 2.6
2018-May-19 11:00S 33°52' E 151°13'1 1.2
2018-May-19 10:30S 33°51' E 151°13'1 1.2
2018-May-19 10:00S 33°52' E 151°13'0 0.2
2018-May-19 09:02S 33°51' E 151°13'0 5.5
2018-May-19 09:01S 33°52' E 151°13'0 0.1
2018-May-19 08:22S 33°52' E 151°13'1 3.3
2018-May-19 07:59S 33°51' E 151°14'1 0.1
2018-May-18 20:40S 33°52' E 151°13'0 0.0
2018-May-18 20:30S 33°52' E 151°13'0 0.0
2018-May-18 20:00S 33°52' E 151°13'0 0.0
2018-May-18 19:28S 33°52' E 151°13'0 0.0
2018-May-18 19:00S 33°52' E 151°13'0 0.0
2018-May-18 18:30S 33°52' E 151°13'0 0.0
2018-May-18 18:00S 33°52' E 151°13'0 0.0
2018-May-18 17:30S 33°52' E 151°13'0 0.0
2018-May-18 17:00S 33°52' E 151°13'0 0.0
2018-May-18 16:29S 33°52' E 151°13'0 0.0
2018-May-18 15:55S 33°52' E 151°13'0 0.0
2018-May-18 14:34S 33°52' E 151°13'0 0.0
2018-May-18 14:20S 33°52' E 151°13'0 0.0
2018-May-18 13:50S 33°52' E 151°13'0 0.0
2018-May-18 13:27S 33°52' E 151°13'0 0.0
2018-May-18 12:45S 33°52' E 151°13'1 0.3
2018-May-18 08:57S 33°51' E 151°14'0 0.3
2018-May-18 07:31S 33°51' E 151°14'0 7.1
2018-May-18 07:28S 33°51' E 151°14'1 0.1
2018-May-17 20:38S 33°52' E 151°13'0 0.0
2018-May-17 20:30S 33°52' E 151°13'0 0.0
2018-May-17 20:00S 33°52' E 151°13'0 0.0
2018-May-17 19:30S 33°52' E 151°13'0 0.0
2018-May-17 19:00S 33°52' E 151°13'0 0.0
2018-May-17 18:30S 33°52' E 151°13'0 0.0
2018-May-17 18:00S 33°52' E 151°13'0 0.0
2018-May-17 17:30S 33°52' E 151°13'0 0.0
2018-May-17 17:00S 33°52' E 151°13'0 0.0
2018-May-17 16:30S 33°52' E 151°13'0 0.0
2018-May-17 16:00S 33°52' E 151°13'0 0.1
2018-May-17 09:21S 33°51' E 151°13'1 3.5
2018-May-17 08:59S 33°51' E 151°14'0 0.8
2018-May-17 08:29S 33°51' E 151°14'0 0.5
2018-May-17 07:48S 33°51' E 151°13'1 1.4
2018-May-17 07:27S 33°51' E 151°14'1 0.1
2018-May-16 20:37S 33°52' E 151°13'0 0.0
2018-May-16 20:22S 33°52' E 151°13'0 0.0
2018-May-16 19:14S 33°52' E 151°13'0 0.0
2018-May-16 18:57S 33°52' E 151°13'0 0.0
2018-May-16 15:31S 33°52' E 151°13'0 0.0
2018-May-16 15:23S 33°52' E 151°13'0 0.0
2018-May-16 14:59S 33°52' E 151°13'0 0.1
2018-May-16 09:21S 33°51' E 151°13'1 1.7
2018-May-16 08:53S 33°51' E 151°14'0 0.1
2018-May-16 08:08S 33°51' E 151°14'1 5.5
2018-May-16 07:57S 33°52' E 151°13'0 0.0
2018-May-16 07:16S 33°52' E 151°13'0 0.0
2018-May-15 20:40S 33°52' E 151°13'0 0.0
2018-May-15 20:26S 33°52' E 151°13'0 0.0
2018-May-15 19:59S 33°52' E 151°13'0 0.0
2018-May-15 19:29S 33°52' E 151°13'0 0.0
2018-May-15 19:00S 33°52' E 151°13'0 0.0
2018-May-15 18:31S 33°52' E 151°13'0 0.0
2018-May-15 18:00S 33°52' E 151°13'0 0.0
2018-May-15 17:31S 33°52' E 151°13'0 0.0
2018-May-15 17:00S 33°52' E 151°13'0 0.0
2018-May-15 16:30S 33°52' E 151°13'0 0.0
2018-May-15 16:01S 33°52' E 151°13'0 0.0
2018-May-15 15:31S 33°52' E 151°13'0 0.0
2018-May-15 15:00S 33°52' E 151°13'0 0.0
2018-May-15 14:30S 33°52' E 151°13'0 0.0
2018-May-15 14:00S 33°52' E 151°13'0 0.0
2018-May-15 13:30S 33°52' E 151°13'1 0.1
2018-May-15 08:05S 33°51' E 151°13'1 3.1
2018-May-15 07:43S 33°51' E 151°14'2 6.1
2018-May-15 07:27S 33°52' E 151°13'0 0.0
2018-May-14 20:31S 33°52' E 151°13'0 0.0
2018-May-14 20:12S 33°52' E 151°13'0 0.0
2018-May-14 19:55S 33°52' E 151°13'0 0.0
2018-May-14 19:27S 33°52' E 151°13'0 0.0
2018-May-14 19:00S 33°52' E 151°13'0 0.0
2018-May-14 18:30S 33°52' E 151°13'0 0.0
2018-May-14 17:39S 33°52' E 151°13'0 0.0
2018-May-14 16:03S 33°52' E 151°13'0 0.0
2018-May-14 15:59S 33°52' E 151°13'0 0.0
2018-May-14 14:43S 33°52' E 151°13'0 0.0
2018-May-14 14:19S 33°52' E 151°13'0 0.0
2018-May-14 14:00S 33°52' E 151°13'0 0.0
2018-May-14 13:28S 33°52' E 151°13'0 0.0
2018-May-14 12:57S 33°52' E 151°13'0 0.0
2018-May-14 12:27S 33°52' E 151°13'0 0.0
2018-May-14 09:30S 33°52' E 151°13'2 3.1
2018-May-14 08:59S 33°51' E 151°14'2 1.6
2018-May-14 08:00S 33°52' E 151°13'2 3.3
2018-May-14 07:30S 33°51' E 151°14'2 0.2
2018-May-13 20:46S 33°52' E 151°13'0 0.0
2018-May-13 20:30S 33°52' E 151°13'0 0.0
2018-May-13 20:00S 33°52' E 151°13'0 0.0
2018-May-13 19:30S 33°52' E 151°13'0 0.0
2018-May-13 18:57S 33°52' E 151°13'0 0.0
2018-May-13 18:30S 33°52' E 151°13'0 0.0
2018-May-13 17:59S 33°52' E 151°13'0 0.0
2018-May-13 17:29S 33°52' E 151°13'0 0.0
2018-May-13 17:00S 33°52' E 151°13'0 0.0
2018-May-13 16:30S 33°52' E 151°13'0 0.0
2018-May-13 16:00S 33°52' E 151°13'0 0.0
2018-May-13 15:30S 33°52' E 151°13'0 0.0
2018-May-13 15:00S 33°52' E 151°13'0 0.0
2018-May-13 14:30S 33°52' E 151°13'0 0.0
2018-May-13 14:00S 33°52' E 151°13'0 0.0
2018-May-13 13:30S 33°52' E 151°13'0 0.0
2018-May-13 13:00S 33°52' E 151°13'0 0.0
2018-May-13 12:23S 33°52' E 151°13'0 0.0
2018-May-13 11:57S 33°52' E 151°13'0 0.0
2018-May-13 11:26S 33°52' E 151°13'0 0.0
2018-May-13 10:59S 33°52' E 151°13'0 0.0
2018-May-13 10:28S 33°52' E 151°13'0 0.0
2018-May-13 10:00S 33°52' E 151°13'0 0.0
2018-May-13 09:30S 33°52' E 151°13'1 0.9
2018-May-13 08:54S 33°51' E 151°13'1 1.9
2018-May-13 08:26S 33°52' E 151°14'1 2.4
2018-May-13 08:00S 33°51' E 151°13'0 0.0
2018-May-12 19:07S 33°52' E 151°13'0 0.0
2018-May-12 18:49S 33°52' E 151°13'0 0.0
2018-May-12 16:35S 33°52' E 151°13'0 0.0
2018-May-12 16:15S 33°52' E 151°13'0 0.0
2018-May-12 15:53S 33°52' E 151°13'0 0.0
2018-May-12 15:29S 33°52' E 151°13'0 0.0
2018-May-12 14:58S 33°52' E 151°13'0 0.3
2018-May-12 14:21S 33°51' E 151°13'1 2.6
2018-May-12 13:55S 33°51' E 151°11'2 4.3
2018-May-12 13:27S 33°51' E 151°14'1 2.2
2018-May-12 13:00S 33°52' E 151°13'1 0.8
2018-May-12 11:53S 33°51' E 151°12'2 4.2
2018-May-12 11:29S 33°51' E 151°14'1 2.6
2018-May-12 11:00S 33°52' E 151°13'0 0.1
2018-May-12 10:26S 33°52' E 151°13'0 0.1
2018-May-12 09:47S 33°52' E 151°13'1 4.2
2018-May-12 09:29S 33°51' E 151°14'1 2.6
2018-May-12 09:00S 33°52' E 151°13'0 0.2
2018-May-12 08:22S 33°52' E 151°13'1 1.7
2018-May-12 07:56S 33°51' E 151°13'1 0.9
2018-May-12 07:02S 33°52' E 151°13'2 0.3
2018-May-12 01:10S 33°52' E 151°15'2 8.8
2018-May-12 00:59S 33°52' E 151°13'1 0.8
2018-May-11 23:48S 33°51' E 151°14'1 1.0
2018-May-11 22:51S 33°51' E 151°13'0 0.1
2018-May-11 22:28S 33°51' E 151°13'0 0.1
2018-May-11 20:42S 33°52' E 151°13'0 0.0
2018-May-11 20:28S 33°52' E 151°13'0 0.0
2018-May-11 19:56S 33°52' E 151°13'0 0.0
2018-May-11 19:15S 33°52' E 151°13'0 0.0
2018-May-11 18:56S 33°52' E 151°13'  
Track history (hours):
 
Tides and Currents Weather Stations Pressure Air Temp Water Temp Dewpoint Dewpoint Depression Visibility Wind Speed Wind Dir Waves Ship Positions

Charlotte

Last reported at 2018-May-21 18:17 UTC. Time now 2018-May-21 19:00 UTC.
Position S 33°52' E 151°13'.

Length 25 m.

Type: Passenger vessel. MMSI: 503345200.

Date/timePositionNaut miles runAvg speedWind from/ knotsBaromVisibWave heightAir tempDewpointWater temp
2018-May-21 18:17S 33°52' E 151°13'0 0.0
2018-May-21 17:55S 33°52' E 151°13'0 0.0
2018-May-21 17:27S 33°52' E 151°13'0 0.0
2018-May-21 16:53S 33°52' E 151°13'0 0.0
2018-May-21 14:57S 33°52' E 151°13'0 0.0
2018-May-21 14:14S 33°52' E 151°13'0 0.0
2018-May-21 13:56S 33°52' E 151°13'0 0.0
2018-May-21 13:27S 33°52' E 151°13'0 0.0
2018-May-21 13:00S 33°52' E 151°13'0 0.0
2018-May-21 12:30S 33°52' E 151°13'0 0.0
2018-May-21 11:50S 33°52' E 151°13'0 0.0
2018-May-21 11:09S 33°52' E 151°13'0 0.0
2018-May-21 10:42S 33°52' E 151°13'0 0.0
2018-May-21 10:28S 33°52' E 151°13'0 0.0
2018-May-21 10:00S 33°52' E 151°13'0 0.0
2018-May-21 09:30S 33°52' E 151°13'2 3.2
2018-May-21 09:00S 33°51' E 151°14'0 0.8
2018-May-21 08:30S 33°51' E 151°14'1 2.4
2018-May-21 08:00S 33°52' E 151°13'2 3.4
2018-May-21 07:30S 33°51' E 151°14'2 0.2
2018-May-20 20:40S 33°52' E 151°13'0 0.0
2018-May-20 20:30S 33°52' E 151°13'0 0.0
2018-May-20 20:00S 33°52' E 151°13'0 0.0
2018-May-20 19:30S 33°52' E 151°13'0 0.0
2018-May-20 19:00S 33°52' E 151°13'0 0.0
2018-May-20 18:30S 33°52' E 151°13'0 0.0
2018-May-20 17:42S 33°52' E 151°13'0 0.0
2018-May-20 16:42S 33°52' E 151°13'0 0.0
2018-May-20 16:30S 33°52' E 151°13'0 0.0
2018-May-20 16:00S 33°52' E 151°13'0 0.0
2018-May-20 15:30S 33°52' E 151°13'0 0.0
2018-May-20 15:00S 33°52' E 151°13'0 0.0
2018-May-20 14:30S 33°52' E 151°13'0 0.0
2018-May-20 14:00S 33°52' E 151°13'0 0.0
2018-May-20 13:30S 33°52' E 151°13'0 0.0
2018-May-20 10:33S 33°52' E 151°13'0 0.0
2018-May-20 10:26S 33°52' E 151°13'0 0.0
2018-May-20 09:56S 33°52' E 151°13'0 0.0
2018-May-20 09:30S 33°52' E 151°13'1 1.3
2018-May-20 08:57S 33°51' E 151°13'1 2.3
2018-May-20 08:23S 33°52' E 151°15'2 4.0
2018-May-20 08:00S 33°51' E 151°13'2 3.0
2018-May-20 07:31S 33°51' E 151°11'2 0.1
2018-May-19 20:39S 33°52' E 151°13'0 0.0
2018-May-19 20:27S 33°52' E 151°13'0 0.0
2018-May-19 20:00S 33°52' E 151°13'0 0.0
2018-May-19 14:23S 33°52' E 151°13'1 3.0
2018-May-19 14:00S 33°51' E 151°11'2 3.6
2018-May-19 13:28S 33°51' E 151°14'1 1.8
2018-May-19 12:59S 33°52' E 151°13'1 2.5
2018-May-19 12:30S 33°51' E 151°11'0 0.7
2018-May-19 11:59S 33°51' E 151°11'2 4.6
2018-May-19 11:29S 33°51' E 151°14'1 2.6
2018-May-19 11:00S 33°52' E 151°13'1 1.2
2018-May-19 10:30S 33°51' E 151°13'1 1.2
2018-May-19 10:00S 33°52' E 151°13'0 0.2
2018-May-19 09:02S 33°51' E 151°13'0 5.5
2018-May-19 09:01S 33°52' E 151°13'0 0.1
2018-May-19 08:22S 33°52' E 151°13'1 3.3
2018-May-19 07:59S 33°51' E 151°14'1 0.1
2018-May-18 20:40S 33°52' E 151°13'0 0.0
2018-May-18 20:30S 33°52' E 151°13'0 0.0
2018-May-18 20:00S 33°52' E 151°13'0 0.0
2018-May-18 19:28S 33°52' E 151°13'0 0.0
2018-May-18 19:00S 33°52' E 151°13'0 0.0
2018-May-18 18:30S 33°52' E 151°13'0 0.0
2018-May-18 18:00S 33°52' E 151°13'0 0.0
2018-May-18 17:30S 33°52' E 151°13'0 0.0
2018-May-18 17:00S 33°52' E 151°13'0 0.0
2018-May-18 16:29S 33°52' E 151°13'0 0.0
2018-May-18 15:55S 33°52' E 151°13'0 0.0
2018-May-18 14:34S 33°52' E 151°13'0 0.0
2018-May-18 14:20S 33°52' E 151°13'0 0.0
2018-May-18 13:50S 33°52' E 151°13'0 0.0
2018-May-18 13:27S 33°52' E 151°13'0 0.0
2018-May-18 12:45S 33°52' E 151°13'1 0.3
2018-May-18 08:57S 33°51' E 151°14'0 0.3
2018-May-18 07:31S 33°51' E 151°14'0 7.1
2018-May-18 07:28S 33°51' E 151°14'1 0.1
2018-May-17 20:38S 33°52' E 151°13'0 0.0
2018-May-17 20:30S 33°52' E 151°13'0 0.0
2018-May-17 20:00S 33°52' E 151°13'0 0.0
2018-May-17 19:30S 33°52' E 151°13'0 0.0
2018-May-17 19:00S 33°52' E 151°13'0 0.0
2018-May-17 18:30S 33°52' E 151°13'0 0.0
2018-May-17 18:00S 33°52' E 151°13'0 0.0
2018-May-17 17:30S 33°52' E 151°13'0 0.0
2018-May-17 17:00S 33°52' E 151°13'0 0.0
2018-May-17 16:30S 33°52' E 151°13'0 0.0
2018-May-17 16:00S 33°52' E 151°13'0 0.1
2018-May-17 09:21S 33°51' E 151°13'1 3.5
2018-May-17 08:59S 33°51' E 151°14'0 0.8
2018-May-17 08:29S 33°51' E 151°14'0 0.5
2018-May-17 07:48S 33°51' E 151°13'1 1.4
2018-May-17 07:27S 33°51' E 151°14'1 0.1
2018-May-16 20:37S 33°52' E 151°13'0 0.0
2018-May-16 20:22S 33°52' E 151°13'0 0.0
2018-May-16 19:14S 33°52' E 151°13'0 0.0
2018-May-16 18:57S 33°52' E 151°13'0 0.0
2018-May-16 15:31S 33°52' E 151°13'0 0.0
2018-May-16 15:23S 33°52' E 151°13'0 0.0
2018-May-16 14:59S 33°52' E 151°13'0 0.1
2018-May-16 09:21S 33°51' E 151°13'1 1.7
2018-May-16 08:53S 33°51' E 151°14'0 0.1
2018-May-16 08:08S 33°51' E 151°14'1 5.5
2018-May-16 07:57S 33°52' E 151°13'0 0.0
2018-May-16 07:16S 33°52' E 151°13'0 0.0
2018-May-15 20:40S 33°52' E 151°13'0 0.0
2018-May-15 20:26S 33°52' E 151°13'0 0.0
2018-May-15 19:59S 33°52' E 151°13'0 0.0
2018-May-15 19:29S 33°52' E 151°13'0 0.0
2018-May-15 19:00S 33°52' E 151°13'0 0.0
2018-May-15 18:31S 33°52' E 151°13'0 0.0
2018-May-15 18:00S 33°52' E 151°13'0 0.0
2018-May-15 17:31S 33°52' E 151°13'0 0.0
2018-May-15 17:00S 33°52' E 151°13'0 0.0
2018-May-15 16:30S 33°52' E 151°13'0 0.0
2018-May-15 16:01S 33°52' E 151°13'0 0.0
2018-May-15 15:31S 33°52' E 151°13'0 0.0
2018-May-15 15:00S 33°52' E 151°13'0 0.0
2018-May-15 14:30S 33°52' E 151°13'0 0.0
2018-May-15 14:00S 33°52' E 151°13'0 0.0
2018-May-15 13:30S 33°52' E 151°13'1 0.1
2018-May-15 08:05S 33°51' E 151°13'1 3.1
2018-May-15 07:43S 33°51' E 151°14'2 6.1
2018-May-15 07:27S 33°52' E 151°13'0 0.0
2018-May-14 20:31S 33°52' E 151°13'0 0.0
2018-May-14 20:12S 33°52' E 151°13'0 0.0
2018-May-14 19:55S 33°52' E 151°13'0 0.0
2018-May-14 19:27S 33°52' E 151°13'0 0.0
2018-May-14 19:00S 33°52' E 151°13'0 0.0
2018-May-14 18:30S 33°52' E 151°13'0 0.0
2018-May-14 17:39S 33°52' E 151°13'0 0.0
2018-May-14 16:03S 33°52' E 151°13'0 0.0
2018-May-14 15:59S 33°52' E 151°13'0 0.0
2018-May-14 14:43S 33°52' E 151°13'0 0.0
2018-May-14 14:19S 33°52' E 151°13'0 0.0
2018-May-14 14:00S 33°52' E 151°13'0 0.0
2018-May-14 13:28S 33°52' E 151°13'0 0.0
2018-May-14 12:57S 33°52' E 151°13'0 0.0
2018-May-14 12:27S 33°52' E 151°13'0 0.0
2018-May-14 09:30S 33°52' E 151°13'2 3.1
2018-May-14 08:59S 33°51' E 151°14'2 1.6
2018-May-14 08:00S 33°52' E 151°13'2 3.3
2018-May-14 07:30S 33°51' E 151°14'2 0.2
2018-May-13 20:46S 33°52' E 151°13'0 0.0
2018-May-13 20:30S 33°52' E 151°13'0 0.0
2018-May-13 20:00S 33°52' E 151°13'0 0.0
2018-May-13 19:30S 33°52' E 151°13'0 0.0
2018-May-13 18:57S 33°52' E 151°13'0 0.0
2018-May-13 18:30S 33°52' E 151°13'0 0.0
2018-May-13 17:59S 33°52' E 151°13'0 0.0
2018-May-13 17:29S 33°52' E 151°13'0 0.0
2018-May-13 17:00S 33°52' E 151°13'0 0.0
2018-May-13 16:30S 33°52' E 151°13'0 0.0
2018-May-13 16:00S 33°52' E 151°13'0 0.0
2018-May-13 15:30S 33°52' E 151°13'0 0.0
2018-May-13 15:00S 33°52' E 151°13'0 0.0
2018-May-13 14:30S 33°52' E 151°13'0 0.0
2018-May-13 14:00S 33°52' E 151°13'0 0.0
2018-May-13 13:30S 33°52' E 151°13'0 0.0
2018-May-13 13:00S 33°52' E 151°13'0 0.0
2018-May-13 12:23S 33°52' E 151°13'0 0.0
2018-May-13 11:57S 33°52' E 151°13'0 0.0
2018-May-13 11:26S 33°52' E 151°13'0 0.0
2018-May-13 10:59S 33°52' E 151°13'0 0.0
2018-May-13 10:28S 33°52' E 151°13'0 0.0
2018-May-13 10:00S 33°52' E 151°13'0 0.0
2018-May-13 09:30S 33°52' E 151°13'1 0.9
2018-May-13 08:54S 33°51' E 151°13'1 1.9
2018-May-13 08:26S 33°52' E 151°14'1 2.4
2018-May-13 08:00S 33°51' E 151°13'0 0.0
2018-May-12 19:07S 33°52' E 151°13'0 0.0
2018-May-12 18:49S 33°52' E 151°13'0 0.0
2018-May-12 16:35S 33°52' E 151°13'0 0.0
2018-May-12 16:15S 33°52' E 151°13'0 0.0
2018-May-12 15:53S 33°52' E 151°13'0 0.0
2018-May-12 15:29S 33°52' E 151°13'0 0.0
2018-May-12 14:58S 33°52' E 151°13'0 0.3
2018-May-12 14:21S 33°51' E 151°13'1 2.6
2018-May-12 13:55S 33°51' E 151°11'2 4.3
2018-May-12 13:27S 33°51' E 151°14'1 2.2
2018-May-12 13:00S 33°52' E 151°13'1 0.8
2018-May-12 11:53S 33°51' E 151°12'2 4.2
2018-May-12 11:29S 33°51' E 151°14'1 2.6
2018-May-12 11:00S 33°52' E 151°13'0 0.1
2018-May-12 10:26S 33°52' E 151°13'0 0.1
2018-May-12 09:47S 33°52' E 151°13'1 4.2
2018-May-12 09:29S 33°51' E 151°14'1 2.6
2018-May-12 09:00S 33°52' E 151°13'0 0.2
2018-May-12 08:22S 33°52' E 151°13'1 1.7
2018-May-12 07:56S 33°51' E 151°13'1 0.9
2018-May-12 07:02S 33°52' E 151°13'2 0.3
2018-May-12 01:10S 33°52' E 151°15'2 8.8
2018-May-12 00:59S 33°52' E 151°13'1 0.8
2018-May-11 23:48S 33°51' E 151°14'1 1.0
2018-May-11 22:51S 33°51' E 151°13'0 0.1
2018-May-11 22:28S 33°51' E 151°13'0 0.1
2018-May-11 20:42S 33°52' E 151°13'0 0.0
2018-May-11 20:28S 33°52' E 151°13'0 0.0
2018-May-11 19:56S 33°52' E 151°13'0 0.0
2018-May-11 19:15S 33°52' E 151°13'0 0.0
2018-May-11 18:56S 33°52' E 151°13'  

Dump ship's entire track history